sensor_id;sensor_type;location;lat;lon;timestamp;P1;durP1;ratioP1;P2;durP2;ratioP2
26102;SDS011;69760;49.380;8.998;2023-06-22T00:01:27;5.97;;;4.63;;
26102;SDS011;69760;49.380;8.998;2023-06-22T00:03:52;5.85;;;4.65;;
26102;SDS011;69760;49.380;8.998;2023-06-22T00:06:18;6.45;;;4.40;;
26102;SDS011;69760;49.380;8.998;2023-06-22T00:08:44;5.50;;;4.35;;
26102;SDS011;69760;49.380;8.998;2023-06-22T00:11:09;5.80;;;4.32;;
26102;SDS011;69760;49.380;8.998;2023-06-22T00:13:35;7.57;;;4.35;;
26102;SDS011;69760;49.380;8.998;2023-06-22T00:16:02;7.22;;;4.07;;
26102;SDS011;69760;49.380;8.998;2023-06-22T00:18:28;8.23;;;3.75;;
26102;SDS011;69760;49.380;8.998;2023-06-22T00:20:55;5.50;;;4.28;;
26102;SDS011;69760;49.380;8.998;2023-06-22T00:23:24;5.90;;;4.10;;
26102;SDS011;69760;49.380;8.998;2023-06-22T00:25:50;6.80;;;4.13;;
26102;SDS011;69760;49.380;8.998;2023-06-22T00:28:15;6.15;;;4.18;;
26102;SDS011;69760;49.380;8.998;2023-06-22T00:30:41;6.75;;;4.47;;
26102;SDS011;69760;49.380;8.998;2023-06-22T00:33:06;6.95;;;4.38;;
26102;SDS011;69760;49.380;8.998;2023-06-22T00:35:32;6.30;;;4.28;;
26102;SDS011;69760;49.380;8.998;2023-06-22T00:37:59;6.55;;;4.13;;
26102;SDS011;69760;49.380;8.998;2023-06-22T00:40:28;6.57;;;4.47;;
26102;SDS011;69760;49.380;8.998;2023-06-22T00:42:58;6.90;;;4.50;;
26102;SDS011;69760;49.380;8.998;2023-06-22T00:45:24;6.18;;;4.03;;
26102;SDS011;69760;49.380;8.998;2023-06-22T00:47:53;6.00;;;4.20;;
26102;SDS011;69760;49.380;8.998;2023-06-22T00:50:22;6.78;;;4.60;;
26102;SDS011;69760;49.380;8.998;2023-06-22T00:52:53;7.40;;;5.07;;
26102;SDS011;69760;49.380;8.998;2023-06-22T00:55:22;8.85;;;4.40;;
26102;SDS011;69760;49.380;8.998;2023-06-22T00:57:48;7.38;;;4.10;;
26102;SDS011;69760;49.380;8.998;2023-06-22T01:00:14;8.02;;;4.68;;
26102;SDS011;69760;49.380;8.998;2023-06-22T01:02:45;7.28;;;4.78;;
26102;SDS011;69760;49.380;8.998;2023-06-22T01:05:14;5.97;;;4.90;;
26102;SDS011;69760;49.380;8.998;2023-06-22T01:10:44;7.63;;;4.75;;
26102;SDS011;69760;49.380;8.998;2023-06-22T01:13:28;6.03;;;4.30;;
26102;SDS011;69760;49.380;8.998;2023-06-22T01:16:12;6.88;;;4.57;;
26102;SDS011;69760;49.380;8.998;2023-06-22T01:18:40;8.88;;;4.88;;
26102;SDS011;69760;49.380;8.998;2023-06-22T01:21:08;10.13;;;4.93;;
26102;SDS011;69760;49.380;8.998;2023-06-22T01:23:50;9.13;;;6.10;;
26102;SDS011;69760;49.380;8.998;2023-06-22T01:29:47;13.38;;;6.13;;
26102;SDS011;69760;49.380;8.998;2023-06-22T01:32:16;9.38;;;5.60;;
26102;SDS011;69760;49.380;8.998;2023-06-22T01:34:42;7.78;;;5.80;;
26102;SDS011;69760;49.380;8.998;2023-06-22T01:37:08;8.52;;;5.65;;
26102;SDS011;69760;49.380;8.998;2023-06-22T01:39:34;7.32;;;5.30;;
26102;SDS011;69760;49.380;8.998;2023-06-22T01:42:01;8.30;;;5.45;;
26102;SDS011;69760;49.380;8.998;2023-06-22T01:44:28;8.50;;;5.60;;
26102;SDS011;69760;49.380;8.998;2023-06-22T01:46:54;8.50;;;6.00;;
26102;SDS011;69760;49.380;8.998;2023-06-22T01:49:20;8.73;;;5.72;;
26102;SDS011;69760;49.380;8.998;2023-06-22T01:51:46;7.80;;;5.95;;
26102;SDS011;69760;49.380;8.998;2023-06-22T01:54:12;10.10;;;5.50;;
26102;SDS011;69760;49.380;8.998;2023-06-22T01:56:37;8.57;;;5.68;;
26102;SDS011;69760;49.380;8.998;2023-06-22T02:02:01;6.22;;;5.13;;
26102;SDS011;69760;49.380;8.998;2023-06-22T02:04:34;9.27;;;5.10;;
26102;SDS011;69760;49.380;8.998;2023-06-22T02:07:16;6.95;;;5.40;;
26102;SDS011;69760;49.380;8.998;2023-06-22T02:09:44;7.38;;;5.50;;
26102;SDS011;69760;49.380;8.998;2023-06-22T02:12:12;8.13;;;5.63;;
26102;SDS011;69760;49.380;8.998;2023-06-22T02:14:42;6.50;;;4.97;;
26102;SDS011;69760;49.380;8.998;2023-06-22T02:17:08;8.27;;;5.80;;
26102;SDS011;69760;49.380;8.998;2023-06-22T02:19:37;5.88;;;5.07;;
26102;SDS011;69760;49.380;8.998;2023-06-22T02:22:04;7.38;;;5.20;;
26102;SDS011;69760;49.380;8.998;2023-06-22T02:24:30;6.95;;;5.40;;
26102;SDS011;69760;49.380;8.998;2023-06-22T02:27:00;8.38;;;5.85;;
26102;SDS011;69760;49.380;8.998;2023-06-22T02:29:26;6.47;;;5.20;;
26102;SDS011;69760;49.380;8.998;2023-06-22T02:31:53;7.15;;;5.68;;
26102;SDS011;69760;49.380;8.998;2023-06-22T02:34:18;7.00;;;5.10;;
26102;SDS011;69760;49.380;8.998;2023-06-22T02:36:50;5.80;;;4.72;;
26102;SDS011;69760;49.380;8.998;2023-06-22T02:39:20;7.47;;;4.97;;
26102;SDS011;69760;49.380;8.998;2023-06-22T02:41:47;6.50;;;5.50;;
26102;SDS011;69760;49.380;8.998;2023-06-22T02:44:13;6.25;;;5.30;;
26102;SDS011;69760;49.380;8.998;2023-06-22T02:46:39;7.20;;;5.20;;
26102;SDS011;69760;49.380;8.998;2023-06-22T02:49:05;5.93;;;4.85;;
26102;SDS011;69760;49.380;8.998;2023-06-22T02:51:32;7.28;;;5.20;;
26102;SDS011;69760;49.380;8.998;2023-06-22T02:54:01;6.72;;;5.35;;
26102;SDS011;69760;49.380;8.998;2023-06-22T02:56:28;7.25;;;5.50;;
26102;SDS011;69760;49.380;8.998;2023-06-22T02:58:55;6.78;;;5.32;;
26102;SDS011;69760;49.380;8.998;2023-06-22T03:01:25;7.10;;;5.43;;
26102;SDS011;69760;49.380;8.998;2023-06-22T03:03:52;8.10;;;5.22;;
26102;SDS011;69760;49.380;8.998;2023-06-22T03:06:18;8.48;;;5.68;;
26102;SDS011;69760;49.380;8.998;2023-06-22T03:08:48;6.78;;;5.40;;
26102;SDS011;69760;49.380;8.998;2023-06-22T03:11:16;6.95;;;5.22;;
26102;SDS011;69760;49.380;8.998;2023-06-22T03:13:42;7.10;;;5.72;;
26102;SDS011;69760;49.380;8.998;2023-06-22T03:16:08;6.47;;;5.45;;
26102;SDS011;69760;49.380;8.998;2023-06-22T03:18:34;7.15;;;5.15;;
26102;SDS011;69760;49.380;8.998;2023-06-22T03:20:59;8.13;;;5.18;;
26102;SDS011;69760;49.380;8.998;2023-06-22T03:23:27;7.70;;;4.80;;
26102;SDS011;69760;49.380;8.998;2023-06-22T03:25:52;7.00;;;5.20;;
26102;SDS011;69760;49.380;8.998;2023-06-22T03:28:20;9.23;;;5.88;;
26102;SDS011;69760;49.380;8.998;2023-06-22T03:30:46;5.90;;;5.07;;
26102;SDS011;69760;49.380;8.998;2023-06-22T03:33:12;7.35;;;5.22;;
26102;SDS011;69760;49.380;8.998;2023-06-22T03:35:37;8.52;;;5.57;;
26102;SDS011;69760;49.380;8.998;2023-06-22T03:38:03;7.03;;;5.10;;
26102;SDS011;69760;49.380;8.998;2023-06-22T03:40:29;7.82;;;6.10;;
26102;SDS011;69760;49.380;8.998;2023-06-22T03:42:54;7.05;;;5.40;;
26102;SDS011;69760;49.380;8.998;2023-06-22T03:45:20;7.40;;;5.50;;
26102;SDS011;69760;49.380;8.998;2023-06-22T03:47:46;7.43;;;5.43;;
26102;SDS011;69760;49.380;8.998;2023-06-22T03:50:11;8.38;;;5.95;;
26102;SDS011;69760;49.380;8.998;2023-06-22T03:52:37;7.22;;;5.57;;
26102;SDS011;69760;49.380;8.998;2023-06-22T03:55:02;8.73;;;5.22;;
26102;SDS011;69760;49.380;8.998;2023-06-22T03:57:28;9.73;;;5.95;;
26102;SDS011;69760;49.380;8.998;2023-06-22T03:59:56;7.80;;;5.30;;
26102;SDS011;69760;49.380;8.998;2023-06-22T04:02:23;6.72;;;5.20;;
26102;SDS011;69760;49.380;8.998;2023-06-22T04:04:48;6.60;;;5.38;;
26102;SDS011;69760;49.380;8.998;2023-06-22T04:07:14;7.28;;;5.47;;
26102;SDS011;69760;49.380;8.998;2023-06-22T04:09:39;6.72;;;5.68;;
26102;SDS011;69760;49.380;8.998;2023-06-22T04:12:05;6.80;;;5.53;;
26102;SDS011;69760;49.380;8.998;2023-06-22T04:14:31;7.53;;;5.82;;
26102;SDS011;69760;49.380;8.998;2023-06-22T04:16:57;6.97;;;5.53;;
26102;SDS011;69760;49.380;8.998;2023-06-22T04:19:23;10.73;;;5.68;;
26102;SDS011;69760;49.380;8.998;2023-06-22T04:21:49;7.68;;;5.70;;
26102;SDS011;69760;49.380;8.998;2023-06-22T04:24:14;6.20;;;5.47;;
26102;SDS011;69760;49.380;8.998;2023-06-22T04:26:40;8.57;;;6.07;;
26102;SDS011;69760;49.380;8.998;2023-06-22T04:29:07;6.80;;;5.28;;
26102;SDS011;69760;49.380;8.998;2023-06-22T04:31:36;9.88;;;5.65;;
26102;SDS011;69760;49.380;8.998;2023-06-22T04:34:02;10.38;;;5.78;;
26102;SDS011;69760;49.380;8.998;2023-06-22T04:36:33;7.28;;;5.53;;
26102;SDS011;69760;49.380;8.998;2023-06-22T04:39:11;6.25;;;5.47;;
26102;SDS011;69760;49.380;8.998;2023-06-22T04:41:37;8.15;;;6.00;;
26102;SDS011;69760;49.380;8.998;2023-06-22T04:46:36;7.20;;;5.50;;
26102;SDS011;69760;49.380;8.998;2023-06-22T04:49:09;6.55;;;5.45;;
26102;SDS011;69760;49.380;8.998;2023-06-22T04:51:40;9.63;;;6.18;;
26102;SDS011;69760;49.380;8.998;2023-06-22T04:54:06;7.63;;;5.82;;
26102;SDS011;69760;49.380;8.998;2023-06-22T04:56:32;8.68;;;6.25;;
26102;SDS011;69760;49.380;8.998;2023-06-22T04:58:58;8.13;;;5.57;;
26102;SDS011;69760;49.380;8.998;2023-06-22T05:01:24;9.27;;;6.63;;
26102;SDS011;69760;49.380;8.998;2023-06-22T05:03:50;10.23;;;6.32;;
26102;SDS011;69760;49.380;8.998;2023-06-22T05:06:20;9.68;;;6.32;;
26102;SDS011;69760;49.380;8.998;2023-06-22T05:08:53;8.40;;;6.68;;
26102;SDS011;69760;49.380;8.998;2023-06-22T05:11:22;11.15;;;7.75;;
26102;SDS011;69760;49.380;8.998;2023-06-22T05:13:51;10.93;;;7.55;;
26102;SDS011;69760;49.380;8.998;2023-06-22T05:16:17;9.63;;;7.50;;
26102;SDS011;69760;49.380;8.998;2023-06-22T05:18:48;9.15;;;7.30;;
26102;SDS011;69760;49.380;8.998;2023-06-22T05:21:24;9.90;;;7.60;;
26102;SDS011;69760;49.380;8.998;2023-06-22T05:23:51;10.60;;;7.97;;
26102;SDS011;69760;49.380;8.998;2023-06-22T05:26:17;10.23;;;7.30;;
26102;SDS011;69760;49.380;8.998;2023-06-22T05:28:44;11.43;;;7.57;;
26102;SDS011;69760;49.380;8.998;2023-06-22T05:31:11;9.85;;;7.35;;
26102;SDS011;69760;49.380;8.998;2023-06-22T05:33:38;10.82;;;8.05;;
26102;SDS011;69760;49.380;8.998;2023-06-22T05:36:03;11.13;;;7.80;;
26102;SDS011;69760;49.380;8.998;2023-06-22T05:38:30;10.45;;;8.00;;
26102;SDS011;69760;49.380;8.998;2023-06-22T05:40:56;11.07;;;7.88;;
26102;SDS011;69760;49.380;8.998;2023-06-22T05:43:21;15.93;;;8.55;;
26102;SDS011;69760;49.380;8.998;2023-06-22T05:45:47;10.43;;;7.85;;
26102;SDS011;69760;49.380;8.998;2023-06-22T05:48:12;12.07;;;8.10;;
26102;SDS011;69760;49.380;8.998;2023-06-22T05:50:38;11.48;;;8.88;;
26102;SDS011;69760;49.380;8.998;2023-06-22T05:53:03;9.50;;;7.60;;
26102;SDS011;69760;49.380;8.998;2023-06-22T05:55:29;9.32;;;7.57;;
26102;SDS011;69760;49.380;8.998;2023-06-22T05:57:55;11.95;;;8.20;;
26102;SDS011;69760;49.380;8.998;2023-06-22T06:00:20;11.45;;;7.55;;
26102;SDS011;69760;49.380;8.998;2023-06-22T06:02:49;10.32;;;7.82;;
26102;SDS011;69760;49.380;8.998;2023-06-22T06:05:14;12.82;;;7.40;;
26102;SDS011;69760;49.380;8.998;2023-06-22T06:07:43;9.45;;;8.00;;
26102;SDS011;69760;49.380;8.998;2023-06-22T06:10:09;9.73;;;7.45;;
26102;SDS011;69760;49.380;8.998;2023-06-22T06:12:35;14.75;;;7.88;;
26102;SDS011;69760;49.380;8.998;2023-06-22T06:15:01;12.15;;;7.70;;
26102;SDS011;69760;49.380;8.998;2023-06-22T06:17:27;10.05;;;7.53;;
26102;SDS011;69760;49.380;8.998;2023-06-22T06:19:53;12.57;;;7.72;;
26102;SDS011;69760;49.380;8.998;2023-06-22T06:22:18;11.13;;;7.80;;
26102;SDS011;69760;49.380;8.998;2023-06-22T06:24:45;10.35;;;7.95;;
26102;SDS011;69760;49.380;8.998;2023-06-22T06:27:12;9.95;;;7.07;;
26102;SDS011;69760;49.380;8.998;2023-06-22T06:29:38;11.52;;;7.35;;
26102;SDS011;69760;49.380;8.998;2023-06-22T06:32:04;10.82;;;7.32;;
26102;SDS011;69760;49.380;8.998;2023-06-22T06:34:29;12.23;;;7.25;;
26102;SDS011;69760;49.380;8.998;2023-06-22T06:36:55;9.30;;;7.55;;
26102;SDS011;69760;49.380;8.998;2023-06-22T06:39:20;11.23;;;7.40;;
26102;SDS011;69760;49.380;8.998;2023-06-22T06:41:46;11.93;;;7.88;;
26102;SDS011;69760;49.380;8.998;2023-06-22T06:44:12;8.93;;;7.25;;
26102;SDS011;69760;49.380;8.998;2023-06-22T06:46:38;11.50;;;7.97;;
26102;SDS011;69760;49.380;8.998;2023-06-22T06:49:03;9.13;;;7.40;;
26102;SDS011;69760;49.380;8.998;2023-06-22T06:51:29;13.00;;;7.70;;
26102;SDS011;69760;49.380;8.998;2023-06-22T06:53:54;9.57;;;8.10;;
26102;SDS011;69760;49.380;8.998;2023-06-22T06:56:20;13.13;;;7.80;;
26102;SDS011;69760;49.380;8.998;2023-06-22T06:58:45;10.65;;;8.45;;
26102;SDS011;69760;49.380;8.998;2023-06-22T07:01:12;10.10;;;7.57;;
26102;SDS011;69760;49.380;8.998;2023-06-22T07:03:38;10.25;;;7.85;;
26102;SDS011;69760;49.380;8.998;2023-06-22T07:06:03;11.48;;;8.07;;
26102;SDS011;69760;49.380;8.998;2023-06-22T07:08:29;11.23;;;7.55;;
26102;SDS011;69760;49.380;8.998;2023-06-22T07:10:55;16.30;;;8.07;;
26102;SDS011;69760;49.380;8.998;2023-06-22T07:13:20;13.02;;;8.18;;
26102;SDS011;69760;49.380;8.998;2023-06-22T07:15:46;14.68;;;8.88;;
26102;SDS011;69760;49.380;8.998;2023-06-22T07:18:12;11.95;;;8.45;;
26102;SDS011;69760;49.380;8.998;2023-06-22T07:20:37;13.48;;;7.57;;
26102;SDS011;69760;49.380;8.998;2023-06-22T07:23:04;10.25;;;7.95;;
26102;SDS011;69760;49.380;8.998;2023-06-22T07:25:30;10.65;;;7.80;;
26102;SDS011;69760;49.380;8.998;2023-06-22T07:28:03;9.93;;;8.13;;
26102;SDS011;69760;49.380;8.998;2023-06-22T07:30:30;11.27;;;7.70;;
26102;SDS011;69760;49.380;8.998;2023-06-22T07:32:57;9.60;;;7.53;;
26102;SDS011;69760;49.380;8.998;2023-06-22T07:35:23;12.02;;;7.93;;
26102;SDS011;69760;49.380;8.998;2023-06-22T07:37:50;9.50;;;7.38;;
26102;SDS011;69760;49.380;8.998;2023-06-22T07:40:15;9.40;;;7.82;;
26102;SDS011;69760;49.380;8.998;2023-06-22T07:42:41;11.48;;;7.57;;
26102;SDS011;69760;49.380;8.998;2023-06-22T07:45:07;9.10;;;7.40;;
26102;SDS011;69760;49.380;8.998;2023-06-22T07:47:33;15.57;;;8.18;;
26102;SDS011;69760;49.380;8.998;2023-06-22T07:50:00;10.98;;;7.60;;
26102;SDS011;69760;49.380;8.998;2023-06-22T07:52:26;11.23;;;7.70;;
26102;SDS011;69760;49.380;8.998;2023-06-22T07:54:52;10.15;;;7.13;;
26102;SDS011;69760;49.380;8.998;2023-06-22T07:57:18;11.15;;;8.60;;
26102;SDS011;69760;49.380;8.998;2023-06-22T07:59:44;12.98;;;7.32;;
26102;SDS011;69760;49.380;8.998;2023-06-22T08:02:10;14.07;;;7.53;;
26102;SDS011;69760;49.380;8.998;2023-06-22T08:04:36;16.20;;;8.10;;
26102;SDS011;69760;49.380;8.998;2023-06-22T08:07:01;11.98;;;7.60;;
26102;SDS011;69760;49.380;8.998;2023-06-22T08:09:28;12.85;;;7.32;;
26102;SDS011;69760;49.380;8.998;2023-06-22T08:11:55;7.10;;;6.40;;
26102;SDS011;69760;49.380;8.998;2023-06-22T08:14:21;8.90;;;7.32;;
26102;SDS011;69760;49.380;8.998;2023-06-22T08:16:50;11.55;;;6.80;;
26102;SDS011;69760;49.380;8.998;2023-06-22T08:19:16;14.90;;;7.47;;
26102;SDS011;69760;49.380;8.998;2023-06-22T08:21:42;8.93;;;7.35;;
26102;SDS011;69760;49.380;8.998;2023-06-22T08:24:07;11.15;;;8.10;;
26102;SDS011;69760;49.380;8.998;2023-06-22T08:26:33;10.80;;;7.18;;
26102;SDS011;69760;49.380;8.998;2023-06-22T08:29:02;11.25;;;7.35;;
26102;SDS011;69760;49.380;8.998;2023-06-22T08:31:30;9.73;;;6.95;;
26102;SDS011;69760;49.380;8.998;2023-06-22T08:33:59;10.00;;;6.90;;
26102;SDS011;69760;49.380;8.998;2023-06-22T08:36:25;11.43;;;7.50;;
26102;SDS011;69760;49.380;8.998;2023-06-22T08:38:53;14.02;;;8.20;;
26102;SDS011;69760;49.380;8.998;2023-06-22T08:41:26;11.15;;;7.40;;
26102;SDS011;69760;49.380;8.998;2023-06-22T08:43:52;13.07;;;7.75;;
26102;SDS011;69760;49.380;8.998;2023-06-22T08:46:18;10.95;;;7.30;;
26102;SDS011;69760;49.380;8.998;2023-06-22T08:48:48;10.23;;;6.95;;
26102;SDS011;69760;49.380;8.998;2023-06-22T08:51:14;7.95;;;7.15;;
26102;SDS011;69760;49.380;8.998;2023-06-22T08:53:39;9.07;;;6.85;;
26102;SDS011;69760;49.380;8.998;2023-06-22T08:56:05;10.68;;;6.88;;
26102;SDS011;69760;49.380;8.998;2023-06-22T08:58:30;10.45;;;7.07;;
26102;SDS011;69760;49.380;8.998;2023-06-22T09:00:56;9.48;;;6.85;;
26102;SDS011;69760;49.380;8.998;2023-06-22T09:03:21;10.77;;;7.05;;
26102;SDS011;69760;49.380;8.998;2023-06-22T09:05:51;11.55;;;6.60;;
26102;SDS011;69760;49.380;8.998;2023-06-22T09:08:16;8.88;;;6.70;;
26102;SDS011;69760;49.380;8.998;2023-06-22T09:10:42;9.13;;;6.90;;
26102;SDS011;69760;49.380;8.998;2023-06-22T09:13:08;13.70;;;7.82;;
26102;SDS011;69760;49.380;8.998;2023-06-22T09:15:33;10.93;;;6.75;;
26102;SDS011;69760;49.380;8.998;2023-06-22T09:17:59;10.27;;;6.68;;
26102;SDS011;69760;49.380;8.998;2023-06-22T09:20:25;11.20;;;7.18;;
26102;SDS011;69760;49.380;8.998;2023-06-22T09:22:50;9.38;;;7.20;;
26102;SDS011;69760;49.380;8.998;2023-06-22T09:25:16;10.18;;;6.65;;
26102;SDS011;69760;49.380;8.998;2023-06-22T09:27:41;10.43;;;6.95;;
26102;SDS011;69760;49.380;8.998;2023-06-22T09:30:07;9.25;;;7.25;;
26102;SDS011;69760;49.380;8.998;2023-06-22T09:32:33;10.45;;;7.28;;
26102;SDS011;69760;49.380;8.998;2023-06-22T09:35:01;11.23;;;6.95;;
26102;SDS011;69760;49.380;8.998;2023-06-22T09:37:30;10.07;;;7.00;;
26102;SDS011;69760;49.380;8.998;2023-06-22T09:39:56;8.88;;;5.70;;
26102;SDS011;69760;49.380;8.998;2023-06-22T09:42:21;10.20;;;6.18;;
26102;SDS011;69760;49.380;8.998;2023-06-22T09:44:47;8.90;;;6.57;;
26102;SDS011;69760;49.380;8.998;2023-06-22T09:47:12;11.93;;;6.65;;
26102;SDS011;69760;49.380;8.998;2023-06-22T09:49:38;10.00;;;6.38;;
26102;SDS011;69760;49.380;8.998;2023-06-22T09:52:04;9.43;;;6.43;;
26102;SDS011;69760;49.380;8.998;2023-06-22T09:54:29;10.40;;;6.15;;
26102;SDS011;69760;49.380;8.998;2023-06-22T09:56:55;9.63;;;6.30;;
26102;SDS011;69760;49.380;8.998;2023-06-22T09:59:21;10.85;;;6.00;;
26102;SDS011;69760;49.380;8.998;2023-06-22T10:01:46;8.90;;;5.63;;
26102;SDS011;69760;49.380;8.998;2023-06-22T10:04:12;11.63;;;6.20;;
26102;SDS011;69760;49.380;8.998;2023-06-22T10:06:37;15.20;;;6.35;;
26102;SDS011;69760;49.380;8.998;2023-06-22T10:09:05;14.55;;;5.60;;
26102;SDS011;69760;49.380;8.998;2023-06-22T10:11:31;9.88;;;5.70;;
26102;SDS011;69760;49.380;8.998;2023-06-22T10:13:59;8.52;;;5.45;;
26102;SDS011;69760;49.380;8.998;2023-06-22T10:16:30;9.15;;;5.55;;
26102;SDS011;69760;49.380;8.998;2023-06-22T10:18:56;8.30;;;5.80;;
26102;SDS011;69760;49.380;8.998;2023-06-22T10:21:21;8.73;;;6.03;;
26102;SDS011;69760;49.380;8.998;2023-06-22T10:23:47;10.70;;;5.95;;
26102;SDS011;69760;49.380;8.998;2023-06-22T10:26:12;7.47;;;5.32;;
26102;SDS011;69760;49.380;8.998;2023-06-22T10:28:38;10.95;;;5.70;;
26102;SDS011;69760;49.380;8.998;2023-06-22T10:31:03;11.38;;;5.72;;
26102;SDS011;69760;49.380;8.998;2023-06-22T10:33:29;8.05;;;5.70;;
26102;SDS011;69760;49.380;8.998;2023-06-22T10:35:54;11.80;;;5.22;;
26102;SDS011;69760;49.380;8.998;2023-06-22T10:38:20;11.57;;;5.60;;
26102;SDS011;69760;49.380;8.998;2023-06-22T10:40:46;9.50;;;5.40;;
26102;SDS011;69760;49.380;8.998;2023-06-22T10:43:11;13.20;;;5.60;;
26102;SDS011;69760;49.380;8.998;2023-06-22T10:45:37;9.98;;;6.00;;
26102;SDS011;69760;49.380;8.998;2023-06-22T10:48:03;16.15;;;5.78;;
26102;SDS011;69760;49.380;8.998;2023-06-22T10:50:28;9.25;;;5.38;;
26102;SDS011;69760;49.380;8.998;2023-06-22T10:52:54;7.30;;;5.50;;
26102;SDS011;69760;49.380;8.998;2023-06-22T10:55:20;8.75;;;5.68;;
26102;SDS011;69760;49.380;8.998;2023-06-22T10:57:45;11.63;;;5.65;;
26102;SDS011;69760;49.380;8.998;2023-06-22T11:00:12;9.18;;;5.75;;
26102;SDS011;69760;49.380;8.998;2023-06-22T11:02:38;10.95;;;5.97;;
26102;SDS011;69760;49.380;8.998;2023-06-22T11:05:04;11.73;;;5.80;;
26102;SDS011;69760;49.380;8.998;2023-06-22T11:07:30;8.60;;;5.63;;
26102;SDS011;69760;49.380;8.998;2023-06-22T11:09:56;11.50;;;5.95;;
26102;SDS011;69760;49.380;8.998;2023-06-22T11:12:21;13.88;;;6.20;;
26102;SDS011;69760;49.380;8.998;2023-06-22T11:14:47;11.27;;;5.60;;
26102;SDS011;69760;49.380;8.998;2023-06-22T11:17:15;14.80;;;6.13;;
26102;SDS011;69760;49.380;8.998;2023-06-22T11:19:40;10.63;;;5.57;;
26102;SDS011;69760;49.380;8.998;2023-06-22T11:22:06;9.07;;;5.72;;
26102;SDS011;69760;49.380;8.998;2023-06-22T11:24:31;9.23;;;5.38;;
26102;SDS011;69760;49.380;8.998;2023-06-22T11:26:57;12.68;;;5.78;;
26102;SDS011;69760;49.380;8.998;2023-06-22T11:29:23;9.55;;;5.53;;
26102;SDS011;69760;49.380;8.998;2023-06-22T11:31:48;9.27;;;6.13;;
26102;SDS011;69760;49.380;8.998;2023-06-22T11:34:14;8.13;;;6.03;;
26102;SDS011;69760;49.380;8.998;2023-06-22T11:36:39;13.27;;;5.68;;
26102;SDS011;69760;49.380;8.998;2023-06-22T11:39:05;12.40;;;5.78;;
26102;SDS011;69760;49.380;8.998;2023-06-22T11:41:30;10.52;;;5.30;;
26102;SDS011;69760;49.380;8.998;2023-06-22T11:43:56;9.38;;;5.80;;
26102;SDS011;69760;49.380;8.998;2023-06-22T11:46:21;11.20;;;5.18;;
26102;SDS011;69760;49.380;8.998;2023-06-22T11:48:47;10.20;;;5.97;;
26102;SDS011;69760;49.380;8.998;2023-06-22T11:51:13;13.30;;;6.18;;
26102;SDS011;69760;49.380;8.998;2023-06-22T11:53:38;11.65;;;5.75;;
26102;SDS011;69760;49.380;8.998;2023-06-22T11:56:04;9.02;;;5.80;;
26102;SDS011;69760;49.380;8.998;2023-06-22T11:58:29;10.75;;;5.80;;
26102;SDS011;69760;49.380;8.998;2023-06-22T12:00:55;13.38;;;6.20;;
26102;SDS011;69760;49.380;8.998;2023-06-22T12:03:20;12.32;;;5.38;;
26102;SDS011;69760;49.380;8.998;2023-06-22T12:05:46;12.48;;;6.10;;
26102;SDS011;69760;49.380;8.998;2023-06-22T12:08:12;9.07;;;5.53;;
26102;SDS011;69760;49.380;8.998;2023-06-22T12:10:38;9.68;;;5.50;;
26102;SDS011;69760;49.380;8.998;2023-06-22T12:13:04;9.88;;;6.07;;
26102;SDS011;69760;49.380;8.998;2023-06-22T12:15:30;13.60;;;5.97;;
26102;SDS011;69760;49.380;8.998;2023-06-22T12:17:55;10.65;;;5.50;;
26102;SDS011;69760;49.380;8.998;2023-06-22T12:20:21;11.18;;;5.60;;
26102;SDS011;69760;49.380;8.998;2023-06-22T12:22:46;9.50;;;5.90;;
26102;SDS011;69760;49.380;8.998;2023-06-22T12:25:12;10.57;;;6.07;;
26102;SDS011;69760;49.380;8.998;2023-06-22T12:27:38;7.75;;;5.60;;
26102;SDS011;69760;49.380;8.998;2023-06-22T12:30:04;9.68;;;5.18;;
26102;SDS011;69760;49.380;8.998;2023-06-22T12:32:30;12.82;;;6.13;;
26102;SDS011;69760;49.380;8.998;2023-06-22T12:34:56;9.15;;;5.93;;
26102;SDS011;69760;49.380;8.998;2023-06-22T12:37:22;10.95;;;5.55;;
26102;SDS011;69760;49.380;8.998;2023-06-22T12:39:47;12.52;;;6.40;;
26102;SDS011;69760;49.380;8.998;2023-06-22T12:42:13;9.88;;;5.93;;
26102;SDS011;69760;49.380;8.998;2023-06-22T12:44:40;12.18;;;5.93;;
26102;SDS011;69760;49.380;8.998;2023-06-22T12:47:06;7.63;;;5.93;;
26102;SDS011;69760;49.380;8.998;2023-06-22T12:49:33;10.73;;;5.07;;
26102;SDS011;69760;49.380;8.998;2023-06-22T12:51:59;9.75;;;5.63;;
26102;SDS011;69760;49.380;8.998;2023-06-22T12:54:24;9.40;;;5.78;;
26102;SDS011;69760;49.380;8.998;2023-06-22T12:56:50;11.18;;;5.60;;
26102;SDS011;69760;49.380;8.998;2023-06-22T12:59:16;9.88;;;6.25;;
26102;SDS011;69760;49.380;8.998;2023-06-22T13:01:42;12.45;;;6.15;;
26102;SDS011;69760;49.380;8.998;2023-06-22T13:04:10;8.48;;;5.85;;
26102;SDS011;69760;49.380;8.998;2023-06-22T13:06:39;10.95;;;5.93;;
26102;SDS011;69760;49.380;8.998;2023-06-22T13:09:07;9.88;;;6.70;;
26102;SDS011;69760;49.380;8.998;2023-06-22T13:11:34;11.52;;;6.05;;
26102;SDS011;69760;49.380;8.998;2023-06-22T13:14:00;14.45;;;6.32;;
26102;SDS011;69760;49.380;8.998;2023-06-22T13:16:29;10.70;;;6.22;;
26102;SDS011;69760;49.380;8.998;2023-06-22T13:18:54;14.10;;;6.60;;
26102;SDS011;69760;49.380;8.998;2023-06-22T13:21:20;13.18;;;6.50;;
26102;SDS011;69760;49.380;8.998;2023-06-22T13:23:45;12.48;;;5.90;;
26102;SDS011;69760;49.380;8.998;2023-06-22T13:26:11;13.70;;;6.22;;
26102;SDS011;69760;49.380;8.998;2023-06-22T13:28:37;11.90;;;6.82;;
26102;SDS011;69760;49.380;8.998;2023-06-22T13:31:02;15.38;;;6.18;;
26102;SDS011;69760;49.380;8.998;2023-06-22T13:33:28;10.65;;;5.95;;
26102;SDS011;69760;49.380;8.998;2023-06-22T13:35:53;8.75;;;5.75;;
26102;SDS011;69760;49.380;8.998;2023-06-22T13:38:19;11.07;;;6.38;;
26102;SDS011;69760;49.380;8.998;2023-06-22T13:40:45;12.80;;;6.35;;
26102;SDS011;69760;49.380;8.998;2023-06-22T13:43:12;10.25;;;5.50;;
26102;SDS011;69760;49.380;8.998;2023-06-22T13:45:38;11.30;;;5.72;;
26102;SDS011;69760;49.380;8.998;2023-06-22T13:48:03;9.55;;;5.95;;
26102;SDS011;69760;49.380;8.998;2023-06-22T13:50:29;8.57;;;5.40;;
26102;SDS011;69760;49.380;8.998;2023-06-22T13:52:55;8.98;;;5.75;;
26102;SDS011;69760;49.380;8.998;2023-06-22T13:55:21;10.63;;;6.10;;
26102;SDS011;69760;49.380;8.998;2023-06-22T13:57:48;10.40;;;6.35;;
26102;SDS011;69760;49.380;8.998;2023-06-22T14:00:14;12.25;;;6.38;;
26102;SDS011;69760;49.380;8.998;2023-06-22T14:02:40;10.38;;;5.95;;
26102;SDS011;69760;49.380;8.998;2023-06-22T14:05:06;10.98;;;6.03;;
26102;SDS011;69760;49.380;8.998;2023-06-22T14:07:32;8.45;;;5.57;;
26102;SDS011;69760;49.380;8.998;2023-06-22T14:09:58;8.68;;;5.88;;
26102;SDS011;69760;49.380;8.998;2023-06-22T14:12:24;11.13;;;6.20;;
26102;SDS011;69760;49.380;8.998;2023-06-22T14:14:50;9.77;;;6.03;;
26102;SDS011;69760;49.380;8.998;2023-06-22T14:17:15;16.17;;;6.60;;
26102;SDS011;69760;49.380;8.998;2023-06-22T14:19:41;11.27;;;6.20;;
26102;SDS011;69760;49.380;8.998;2023-06-22T14:22:07;12.18;;;6.45;;
26102;SDS011;69760;49.380;8.998;2023-06-22T14:24:32;8.30;;;6.57;;
26102;SDS011;69760;49.380;8.998;2023-06-22T14:26:58;17.55;;;6.28;;
26102;SDS011;69760;49.380;8.998;2023-06-22T14:29:24;7.88;;;6.05;;
26102;SDS011;69760;49.380;8.998;2023-06-22T14:31:50;13.52;;;6.57;;
26102;SDS011;69760;49.380;8.998;2023-06-22T14:34:16;12.85;;;6.38;;
26102;SDS011;69760;49.380;8.998;2023-06-22T14:36:41;11.48;;;6.65;;
26102;SDS011;69760;49.380;8.998;2023-06-22T14:39:08;9.55;;;6.30;;
26102;SDS011;69760;49.380;8.998;2023-06-22T14:41:34;12.80;;;6.32;;
26102;SDS011;69760;49.380;8.998;2023-06-22T14:44:00;10.35;;;6.22;;
26102;SDS011;69760;49.380;8.998;2023-06-22T14:46:26;13.85;;;7.40;;
26102;SDS011;69760;49.380;8.998;2023-06-22T14:48:52;10.35;;;6.57;;